createdAt,value
2022-08-05T00:01:36.337Z,61.22
2022-08-05T00:04:18.443Z,62.10
2022-08-05T00:06:51.679Z,62.79
2022-08-05T00:09:20.755Z,62.32
2022-08-05T00:11:56.021Z,62.70
2022-08-05T00:14:31.466Z,65.95
2022-08-05T00:17:01.942Z,65.92
2022-08-05T00:19:33.605Z,64.57
2022-08-05T00:22:12.975Z,64.41
2022-08-05T00:24:42.870Z,62.86
2022-08-05T00:27:14.165Z,63.29
2022-08-05T00:29:45.673Z,64.13
2022-08-05T00:32:15.270Z,65.40
2022-08-05T00:35:05.676Z,63.90
2022-08-05T00:37:53.157Z,64.72
2022-08-05T00:40:29.254Z,64.09
2022-08-05T00:43:00.693Z,62.42
2022-08-05T00:45:43.138Z,64.24
2022-08-05T00:48:27.553Z,63.42
2022-08-05T00:51:00.113Z,65.20
2022-08-05T00:54:00.133Z,62.35
2022-08-05T00:56:26.310Z,62.45
2022-08-05T00:58:56.309Z,63.21
2022-08-05T01:01:42.660Z,63.37
2022-08-05T01:04:15.850Z,62.35
2022-08-05T01:06:48.898Z,61.76
2022-08-05T01:09:20.540Z,62.68
2022-08-05T01:11:53.284Z,62.85
2022-08-05T01:14:49.592Z,65.11
2022-08-05T01:17:30.231Z,63.74
2022-08-05T01:20:15.268Z,64.44
2022-08-05T01:23:23.519Z,65.14
2022-08-05T01:26:28.769Z,66.42
2022-08-05T01:29:10.401Z,65.92
2022-08-05T01:31:49.743Z,67.04
2022-08-05T01:34:50.194Z,67.86
2022-08-05T01:37:44.417Z,69.63
2022-08-05T01:40:17.770Z,68.61
2022-08-05T01:42:48.839Z,68.26
2022-08-05T01:45:18.349Z,69.70
2022-08-05T01:47:54.601Z,70.19
2022-08-05T01:50:32.450Z,68.99
2022-08-05T01:53:04.981Z,69.87
2022-08-05T01:55:36.106Z,70.60
2022-08-05T01:58:15.510Z,71.05
2022-08-05T02:00:49.117Z,70.10
2022-08-05T02:03:31.795Z,68.33
2022-08-05T02:06:33.512Z,70.18
2022-08-05T02:08:57.920Z,69.48
2022-08-05T02:11:33.075Z,69.07
2022-08-05T02:14:28.816Z,69.07
2022-08-05T02:17:08.488Z,69.34
2022-08-05T02:19:51.391Z,69.44
2022-08-05T02:22:29.866Z,68.76
2022-08-05T02:25:06.472Z,68.56
2022-08-05T02:27:58.082Z,68.94
2022-08-05T02:30:40.570Z,71.04
2022-08-05T02:33:36.080Z,72.37
2022-08-05T02:36:13.630Z,73.28
2022-08-05T02:38:53.545Z,73.93
2022-08-05T02:41:28.826Z,74.31
2022-08-05T02:44:13.321Z,73.39
2022-08-05T02:46:59.928Z,73.35
2022-08-05T02:49:35.996Z,73.51
2022-08-05T02:52:08.976Z,75.13
2022-08-05T02:54:41.359Z,74.71
2022-08-05T02:58:12.236Z,74.87
2022-08-05T03:00:04.400Z,75.42
2022-08-05T03:02:43.546Z,76.72
2022-08-05T03:05:14.060Z,77.66
2022-08-05T03:08:06.897Z,78.00
2022-08-05T03:10:33.968Z,79.13
2022-08-05T03:15:29.599Z,80.73
2022-08-05T03:17:59.498Z,80.24
2022-08-05T03:20:28.402Z,78.70
2022-08-05T03:22:58.199Z,79.26
2022-08-05T03:25:33.821Z,79.51
2022-08-05T03:28:18.776Z,81.15
2022-08-05T03:30:50.866Z,81.35
2022-08-05T03:33:20.397Z,81.78
2022-08-05T03:35:50.731Z,82.13
2022-08-05T03:38:23.846Z,82.57
2022-08-05T03:41:08.206Z,82.60
2022-08-05T03:44:08.123Z,82.80
2022-08-05T03:46:29.485Z,83.40
2022-08-05T03:48:59.307Z,83.12
2022-08-05T03:52:38.840Z,82.77
2022-08-05T03:55:53.009Z,82.16
2022-08-05T03:57:41.877Z,81.35
2022-08-05T04:00:16.283Z,81.70
2022-08-05T04:02:58.284Z,83.08
2022-08-05T04:05:37.177Z,82.17
2022-08-05T04:08:14.567Z,82.57
2022-08-05T04:10:46.684Z,82.65
2022-08-05T04:13:19.672Z,83.32
2022-08-05T04:16:03.243Z,82.74
2022-08-05T04:18:34.234Z,82.47
2022-08-05T04:21:04.273Z,82.84
2022-08-05T04:24:05.875Z,82.92
2022-08-05T04:26:23.101Z,82.89
2022-08-05T04:28:52.202Z,83.06
2022-08-05T04:31:21.849Z,83.75
2022-08-05T04:34:18.439Z,83.53
2022-08-05T04:36:49.548Z,84.80
2022-08-05T04:39:19.276Z,84.38
2022-08-05T04:41:50.951Z,84.06
2022-08-05T04:44:29.502Z,85.09
2022-08-05T04:47:09.534Z,85.53
2022-08-05T04:50:02.189Z,85.80
2022-08-05T04:52:34.062Z,86.41
2022-08-05T04:55:14.758Z,86.31
2022-08-05T04:57:47.709Z,86.28
2022-08-05T05:00:17.419Z,86.37
2022-08-05T05:02:46.028Z,85.87
2022-08-05T05:05:26.162Z,86.31
2022-08-05T05:08:03.226Z,86.08
2022-08-05T05:10:35.043Z,85.15
2022-08-05T05:13:04.664Z,85.42
2022-08-05T05:16:01.850Z,85.19
2022-08-05T05:18:31.274Z,84.84
2022-08-05T05:21:03.587Z,85.11
2022-08-05T05:23:39.015Z,85.14
2022-08-05T05:26:28.308Z,83.78
2022-08-05T05:29:02.283Z,84.44
2022-08-05T05:34:01.875Z,84.68
2022-08-05T05:36:32.607Z,84.52
2022-08-05T05:39:09.463Z,85.19
2022-08-05T05:41:40.573Z,85.89
2022-08-05T05:44:35.638Z,85.08
2022-08-05T05:47:04.033Z,85.72
2022-08-05T05:49:33.806Z,85.77
2022-08-05T05:52:05.943Z,85.86
2022-08-05T05:54:50.197Z,85.25
2022-08-05T05:57:20.714Z,85.36
2022-08-05T05:59:49.500Z,84.97
2022-08-05T06:02:32.805Z,85.32
2022-08-05T06:05:10.143Z,85.79
2022-08-05T06:08:01.156Z,85.72
2022-08-05T06:10:34.458Z,86.88
2022-08-05T06:13:06.590Z,87.14
2022-08-05T06:16:29.541Z,86.78
2022-08-05T06:18:31.538Z,85.89
2022-08-05T06:21:01.192Z,84.97
2022-08-05T06:23:32.255Z,85.41
2022-08-05T06:28:50.509Z,84.73
2022-08-05T06:31:21.734Z,85.16
2022-08-05T06:34:07.385Z,85.68
2022-08-05T06:36:57.366Z,85.92
2022-08-05T06:39:27.028Z,86.23
2022-08-05T06:42:00.658Z,88.93
2022-08-05T06:44:29.539Z,90.43
2022-08-05T06:46:58.466Z,92.51
2022-08-05T06:50:00.453Z,93.91
2022-08-05T06:52:36.710Z,94.14
2022-08-05T06:55:06.514Z,93.88
2022-08-05T06:58:03.933Z,94.05
2022-08-05T07:00:24.731Z,94.68
2022-08-05T07:02:54.310Z,95.98
2022-08-05T07:05:37.030Z,98.85
2022-08-05T07:08:06.250Z,100.00
2022-08-05T07:10:39.273Z,100.00
2022-08-05T07:13:57.648Z,100.00
2022-08-05T07:17:57.135Z,100.00
2022-08-05T07:22:28.520Z,100.00
2022-08-05T07:25:21.850Z,100.00
2022-08-05T07:27:57.793Z,100.00
2022-08-05T07:30:38.328Z,100.00
2022-08-05T07:33:16.435Z,100.00
2022-08-05T07:36:02.809Z,100.00
2022-08-05T07:38:43.074Z,100.00
2022-08-05T07:42:14.353Z,100.00
2022-08-05T07:44:19.184Z,100.00
2022-08-05T07:46:50.299Z,100.00
2022-08-05T07:49:20.037Z,100.00
2022-08-05T07:51:53.649Z,100.00
2022-08-05T07:54:31.002Z,100.00
2022-08-05T07:57:17.612Z,100.00
2022-08-05T07:59:53.816Z,100.00
2022-08-05T08:02:31.440Z,100.00
2022-08-05T08:05:19.182Z,100.00
2022-08-05T08:07:59.849Z,100.00
2022-08-05T08:10:29.293Z,100.00
2022-08-05T08:12:59.098Z,100.00
2022-08-05T08:16:33.469Z,100.00
2022-08-05T08:18:21.877Z,100.00
2022-08-05T08:21:01.795Z,100.00
2022-08-05T08:24:01.279Z,100.00
2022-08-05T08:26:26.740Z,100.00
2022-08-05T08:29:21.960Z,100.00
2022-08-05T08:31:48.395Z,100.00
2022-08-05T08:34:29.885Z,100.00
2022-08-05T08:37:04.893Z,100.00
2022-08-05T08:39:37.635Z,100.00
2022-08-05T08:42:33.700Z,100.00
2022-08-05T08:45:24.938Z,100.00
2022-08-05T08:48:07.530Z,100.00
2022-08-05T08:51:03.492Z,100.00
2022-08-05T08:53:30.186Z,100.00
2022-08-05T08:56:04.824Z,100.00
2022-08-05T08:58:43.839Z,100.00
2022-08-05T09:01:18.047Z,100.00
2022-08-05T09:03:55.437Z,100.00
2022-08-05T09:06:28.538Z,100.00
2022-08-05T09:09:01.723Z,100.00
2022-08-05T09:11:53.125Z,100.00
2022-08-05T09:14:59.202Z,100.00
2022-08-05T09:17:42.481Z,100.00
2022-08-05T09:20:08.372Z,100.00
2022-08-05T09:23:07.698Z,100.00
2022-08-05T09:26:00.228Z,100.00
2022-08-05T09:28:31.866Z,100.00
2022-08-05T09:31:44.096Z,100.00
2022-08-05T09:34:00.721Z,100.00
2022-08-05T09:36:45.814Z,100.00
2022-08-05T09:39:41.450Z,100.00
2022-08-05T09:42:24.557Z,100.00
2022-08-05T09:45:03.373Z,100.00
2022-08-05T09:47:54.965Z,100.00
2022-08-05T09:50:44.573Z,100.00
2022-08-05T09:53:23.113Z,100.00
2022-08-05T09:56:04.744Z,100.00
2022-08-05T09:58:41.832Z,100.00
2022-08-05T10:01:22.557Z,100.00
2022-08-05T10:04:10.342Z,100.00
2022-08-05T10:06:54.847Z,100.00
2022-08-05T10:09:29.607Z,100.00
2022-08-05T10:12:18.460Z,100.00
2022-08-05T10:15:20.945Z,100.00
2022-08-05T10:18:24.111Z,100.00
2022-08-05T10:20:59.114Z,100.00
2022-08-05T10:23:59.008Z,100.00
2022-08-05T10:26:32.272Z,100.00
2022-08-05T10:29:01.627Z,100.00
2022-08-05T10:32:52.205Z,100.00
2022-08-05T10:34:18.841Z,100.00
2022-08-05T10:36:54.995Z,100.00
2022-08-05T10:39:59.236Z,100.00
2022-08-05T10:42:33.545Z,100.00
2022-08-05T10:45:21.135Z,100.00
2022-08-05T10:48:30.327Z,100.00
2022-08-05T10:51:22.062Z,100.00
2022-08-05T10:54:23.172Z,100.00
2022-08-05T10:56:53.558Z,100.00
2022-08-05T11:00:02.726Z,100.00
2022-08-05T11:02:38.451Z,100.00
2022-08-05T11:05:11.696Z,100.00
2022-08-05T11:08:21.679Z,100.00
2022-08-05T11:11:01.068Z,100.00
2022-08-05T11:13:54.789Z,100.00
2022-08-05T11:16:34.031Z,100.00
2022-08-05T11:20:11.339Z,100.00
2022-08-05T11:22:44.462Z,100.00
2022-08-05T11:26:05.371Z,100.00
2022-08-05T11:28:28.434Z,100.00
2022-08-05T11:31:00.165Z,100.00
2022-08-05T11:33:56.555Z,100.00
2022-08-05T11:36:53.241Z,100.00
2022-08-05T11:40:00.741Z,100.00
2022-08-05T11:42:37.762Z,100.00
2022-08-05T11:45:23.548Z,100.00
2022-08-05T11:47:59.976Z,100.00
2022-08-05T11:50:29.694Z,100.00
2022-08-05T11:52:58.531Z,100.00
2022-08-05T11:55:31.978Z,100.00
2022-08-05T11:58:10.480Z,100.00
2022-08-05T12:00:44.388Z,100.00
2022-08-05T12:03:29.086Z,100.00
2022-08-05T12:06:10.092Z,100.00
2022-08-05T12:08:53.990Z,100.00
2022-08-05T12:11:40.244Z,100.00
2022-08-05T12:14:11.016Z,100.00
2022-08-05T12:16:45.649Z,100.00
2022-08-05T12:20:16.671Z,100.00
2022-08-05T12:22:09.481Z,100.00
2022-08-05T12:24:43.627Z,100.00
2022-08-05T12:27:26.741Z,100.00
2022-08-05T12:30:03.987Z,100.00
2022-08-05T12:32:39.719Z,100.00
2022-08-05T12:35:09.697Z,100.00
2022-08-05T12:37:38.927Z,100.00
2022-08-05T12:40:20.646Z,100.00
2022-08-05T12:42:55.702Z,100.00
2022-08-05T12:45:42.555Z,100.00
2022-08-05T12:48:26.989Z,100.00
2022-08-05T12:51:21.896Z,100.00
2022-08-05T12:54:16.969Z,100.00
2022-08-05T12:56:57.888Z,100.00
2022-08-05T13:00:08.315Z,100.00
2022-08-05T13:02:27.252Z,100.00
2022-08-05T13:04:59.068Z,100.00
2022-08-05T13:07:57.367Z,100.00
2022-08-05T13:10:19.951Z,100.00
2022-08-05T13:12:51.014Z,100.00
2022-08-05T13:15:41.541Z,100.00
2022-08-05T13:18:20.682Z,100.00
2022-08-05T13:20:50.455Z,100.00
2022-08-05T13:23:22.577Z,100.00
2022-08-05T13:25:58.958Z,100.00
2022-08-05T13:28:32.160Z,100.00
2022-08-05T13:31:11.185Z,100.00
2022-08-05T13:34:21.627Z,100.00
2022-08-05T13:36:32.390Z,100.00
2022-08-05T13:39:01.027Z,100.00
2022-08-05T13:41:38.339Z,100.00
2022-08-05T13:44:10.108Z,100.00
2022-08-05T13:47:01.820Z,100.00
2022-08-05T13:49:27.089Z,100.00
2022-08-05T13:51:59.820Z,100.00
2022-08-05T13:54:28.604Z,100.00
2022-08-05T13:57:00.013Z,100.00
2022-08-05T13:59:30.745Z,100.00
2022-08-05T14:02:00.877Z,100.00
2022-08-05T14:04:55.687Z,100.00
2022-08-05T14:07:59.516Z,100.00
2022-08-05T14:10:34.732Z,100.00
2022-08-05T14:13:04.308Z,100.00
2022-08-05T14:16:08.566Z,100.00
2022-08-05T14:18:23.896Z,100.00
2022-08-05T14:20:55.086Z,100.00
2022-08-05T14:23:26.275Z,100.00
2022-08-05T14:25:58.833Z,100.00
2022-08-05T14:28:32.085Z,100.00
2022-08-05T14:31:01.837Z,100.00
2022-08-05T14:33:56.487Z,100.00
2022-08-05T14:36:21.597Z,100.00
2022-08-05T14:38:51.063Z,100.00
2022-08-05T14:41:20.046Z,100.00
2022-08-05T14:43:59.480Z,100.00
2022-08-05T14:46:35.438Z,100.00
2022-08-05T14:49:07.272Z,100.00
2022-08-05T14:51:38.378Z,100.00
2022-08-05T14:54:30.140Z,100.00
2022-08-05T14:56:56.879Z,100.00
2022-08-05T14:59:25.532Z,100.00
2022-08-05T15:01:59.987Z,100.00
2022-08-05T15:04:29.421Z,100.00
2022-08-05T15:06:58.166Z,100.00
2022-08-05T15:09:52.367Z,100.00
2022-08-05T15:12:16.957Z,100.00
2022-08-05T15:14:50.043Z,100.00
2022-08-05T15:17:46.221Z,100.00
2022-08-05T15:20:18.665Z,100.00
2022-08-05T15:22:54.045Z,100.00
2022-08-05T15:25:52.812Z,100.00
2022-08-05T15:28:16.159Z,100.00
2022-08-05T15:30:46.651Z,100.00
2022-08-05T15:33:56.656Z,100.00
2022-08-05T15:36:17.617Z,100.00
2022-08-05T15:40:42.658Z,100.00
2022-08-05T15:41:55.410Z,100.00
2022-08-05T15:44:25.561Z,100.00
2022-08-05T15:46:56.344Z,99.35
2022-08-05T15:49:53.781Z,97.84
2022-08-05T15:52:16.589Z,97.45
2022-08-05T15:54:58.340Z,96.80
2022-08-05T15:57:32.967Z,95.75
2022-08-05T16:00:02.287Z,94.60
2022-08-05T16:02:31.193Z,93.60
2022-08-05T16:04:59.747Z,93.22
2022-08-05T16:07:29.442Z,94.27
2022-08-05T16:09:58.561Z,93.56
2022-08-05T16:12:27.222Z,93.27
2022-08-05T16:14:56.019Z,91.72
2022-08-05T16:17:25.503Z,93.36
2022-08-05T16:20:04.716Z,93.33
2022-08-05T16:22:40.112Z,91.84
2022-08-05T16:25:11.380Z,91.48
2022-08-05T16:27:59.848Z,89.51
2022-08-05T16:30:29.960Z,90.41
2022-08-05T16:33:01.925Z,88.80
2022-08-05T16:35:33.723Z,88.00
2022-08-05T16:38:18.713Z,86.19
2022-08-05T16:41:00.299Z,87.00
2022-08-05T16:43:35.111Z,85.76
2022-08-05T16:46:24.174Z,86.61
2022-08-05T16:48:53.633Z,85.82
2022-08-05T16:51:24.611Z,86.50
2022-08-05T16:54:05.179Z,86.71
2022-08-05T16:56:43.972Z,86.85
2022-08-05T16:59:14.610Z,85.22
2022-08-05T17:01:54.391Z,86.22
2022-08-05T17:04:27.139Z,84.73
2022-08-05T17:07:00.175Z,83.40
2022-08-05T17:09:30.568Z,82.24
2022-08-05T17:12:07.792Z,85.56
2022-08-05T17:14:40.482Z,84.95
2022-08-05T17:17:14.920Z,83.80
2022-08-05T17:19:46.495Z,84.58
2022-08-05T17:22:25.619Z,84.95
2022-08-05T17:24:57.957Z,84.23
2022-08-05T17:27:33.575Z,84.07
2022-08-05T17:30:11.822Z,83.62
2022-08-05T17:32:47.282Z,82.86
2022-08-05T17:35:20.717Z,82.55
2022-08-05T17:37:49.602Z,81.73
2022-08-05T17:40:22.693Z,78.87
2022-08-05T17:42:53.014Z,80.46
2022-08-05T17:45:29.713Z,80.93
2022-08-05T17:48:09.039Z,79.07
2022-08-05T17:50:40.006Z,77.57
2022-08-05T17:53:09.999Z,77.74
2022-08-05T17:55:39.922Z,77.54
2022-08-05T17:58:16.435Z,78.29
2022-08-05T18:00:50.598Z,77.72
2022-08-05T18:06:11.275Z,77.31
2022-08-05T18:08:44.412Z,77.33
2022-08-05T18:11:24.312Z,76.44
2022-08-05T18:14:06.793Z,75.32
2022-08-05T18:16:49.609Z,72.66
2022-08-05T18:19:22.994Z,72.17
2022-08-05T18:22:09.470Z,70.35
2022-08-05T18:24:40.811Z,71.79
2022-08-05T18:27:18.094Z,69.15
2022-08-05T18:29:53.618Z,69.49
2022-08-05T18:32:27.603Z,68.64
2022-08-05T18:34:57.488Z,65.22
2022-08-05T18:37:33.435Z,65.79
2022-08-05T18:40:34.030Z,64.13
2022-08-05T18:42:52.260Z,64.15
2022-08-05T18:45:21.257Z,63.76
2022-08-05T18:47:56.295Z,67.64
2022-08-05T18:50:46.511Z,68.15
2022-08-05T18:53:20.626Z,64.95
2022-08-05T18:55:53.255Z,67.45
2022-08-05T18:58:27.280Z,65.86
2022-08-05T19:00:58.258Z,66.98
2022-08-05T19:03:52.750Z,67.66
2022-08-05T19:06:22.356Z,68.83
2022-08-05T19:09:02.390Z,68.46
2022-08-05T19:11:56.710Z,68.07
2022-08-05T19:14:44.512Z,69.05
2022-08-05T19:17:13.014Z,66.89
2022-08-05T19:19:44.160Z,67.49
2022-08-05T19:22:22.693Z,67.47
2022-08-05T19:25:02.659Z,66.30
2022-08-05T19:27:31.473Z,68.05
2022-08-05T19:30:00.418Z,67.60
2022-08-05T19:32:32.208Z,65.93
2022-08-05T19:35:05.632Z,62.51
2022-08-05T19:38:04.636Z,63.42
2022-08-05T19:40:25.077Z,62.26
2022-08-05T19:43:00.692Z,61.90
2022-08-05T19:45:33.158Z,57.33
2022-08-05T19:48:06.050Z,57.15
2022-08-05T19:50:34.791Z,57.84
2022-08-05T19:53:09.438Z,59.40
2022-08-05T19:56:12.430Z,59.84
2022-08-05T19:58:30.099Z,59.94
2022-08-05T20:00:59.379Z,59.35
2022-08-05T20:03:40.512Z,62.77
2022-08-05T20:06:15.699Z,59.76
2022-08-05T20:08:59.855Z,60.23
2022-08-05T20:11:37.727Z,61.18
2022-08-05T20:14:12.508Z,59.96
2022-08-05T20:16:43.483Z,59.46
2022-08-05T20:19:12.168Z,59.70
2022-08-05T20:21:43.347Z,60.02
2022-08-05T20:24:13.401Z,60.26
2022-08-05T20:26:44.743Z,60.57
2022-08-05T20:29:27.597Z,58.61
2022-08-05T20:31:58.339Z,59.54
2022-08-05T20:34:28.802Z,56.81
2022-08-05T20:36:57.612Z,57.78
2022-08-05T20:39:26.356Z,56.46
2022-08-05T20:42:06.748Z,58.06
2022-08-05T20:44:39.600Z,54.64
2022-08-05T20:47:09.163Z,57.64
2022-08-05T20:49:39.879Z,54.74
2022-08-05T20:52:10.639Z,53.62
2022-08-05T20:54:55.131Z,53.63
2022-08-05T20:57:43.942Z,53.25
2022-08-05T21:00:40.221Z,53.78
2022-08-05T21:03:07.581Z,52.24
2022-08-05T21:05:53.784Z,52.93
2022-08-05T21:08:41.919Z,53.62
2022-08-05T21:12:09.588Z,53.39
2022-08-05T21:14:05.390Z,55.43
2022-08-05T21:16:34.907Z,54.15
2022-08-05T21:19:03.945Z,55.09
2022-08-05T21:21:43.920Z,52.69
2022-08-05T21:24:19.404Z,49.83
2022-08-05T21:26:58.342Z,50.94
2022-08-05T21:29:32.108Z,51.34
2022-08-05T21:32:02.863Z,52.50
2022-08-05T21:34:32.932Z,48.55
2022-08-05T21:37:05.803Z,50.27
2022-08-05T21:39:40.482Z,52.84
2022-08-05T21:42:30.729Z,53.95
2022-08-05T21:44:59.828Z,54.50
2022-08-05T21:47:55.715Z,52.24
2022-08-05T21:50:18.310Z,53.21
2022-08-05T21:52:47.303Z,54.25
2022-08-05T21:55:16.007Z,54.04
2022-08-05T21:57:44.657Z,52.19
2022-08-05T22:00:15.787Z,53.45
2022-08-05T22:02:44.753Z,54.49
2022-08-05T22:05:14.518Z,55.03
2022-08-05T22:07:59.161Z,55.52
2022-08-05T22:10:31.153Z,56.29
2022-08-05T22:14:05.100Z,55.95
2022-08-05T22:16:00.814Z,59.60
2022-08-05T22:18:36.863Z,59.13
2022-08-05T22:21:17.885Z,57.01
2022-08-05T22:24:12.751Z,52.08
2022-08-05T22:27:00.368Z,54.87
2022-08-05T22:29:35.079Z,51.70
2022-08-05T22:32:03.750Z,53.63
2022-08-05T22:34:33.780Z,55.58
2022-08-05T22:37:03.670Z,53.47
2022-08-05T22:39:34.145Z,55.35
2022-08-05T22:42:11.260Z,56.34
2022-08-05T22:44:48.395Z,57.53
2022-08-05T22:47:29.634Z,55.69
2022-08-05T22:50:20.747Z,51.95
2022-08-05T22:52:51.534Z,51.02
2022-08-05T22:55:21.962Z,49.89
2022-08-05T22:57:52.837Z,48.30
2022-08-05T23:00:23.357Z,49.03
2022-08-05T23:02:54.722Z,51.13
2022-08-05T23:05:23.988Z,49.77
2022-08-05T23:07:53.524Z,50.26
2022-08-05T23:10:23.820Z,48.85
2022-08-05T23:12:55.428Z,49.71
2022-08-05T23:15:29.494Z,49.50
2022-08-05T23:18:03.181Z,51.38
2022-08-05T23:20:37.291Z,50.79
2022-08-05T23:23:08.947Z,51.84
2022-08-05T23:25:52.816Z,50.27
2022-08-05T23:28:28.551Z,49.62
2022-08-05T23:31:03.707Z,51.23
2022-08-05T23:34:04.732Z,53.24
2022-08-05T23:36:40.324Z,50.95
2022-08-05T23:39:32.275Z,51.65
2022-08-05T23:42:08.628Z,51.96
2022-08-05T23:44:42.985Z,51.76
2022-08-05T23:47:14.513Z,52.13
2022-08-05T23:49:46.646Z,51.61
2022-08-05T23:52:36.160Z,53.72
2022-08-05T23:55:18.223Z,50.33
2022-08-05T23:57:51.250Z,52.66
